sensor_id;sensor_type;location;lat;lon;timestamp;P1;durP1;ratioP1;P2;durP2;ratioP2
2570;SDS011;1295;51.130;6.732;2023-03-17T00:00:09;59.27;;;5.10;;
2570;SDS011;1295;51.130;6.732;2023-03-17T00:02:37;62.17;;;6.40;;
2570;SDS011;1295;51.130;6.732;2023-03-17T00:05:12;59.00;;;5.33;;
2570;SDS011;1295;51.130;6.732;2023-03-17T00:07:45;60.17;;;5.83;;
2570;SDS011;1295;51.130;6.732;2023-03-17T00:10:13;61.37;;;7.73;;
2570;SDS011;1295;51.130;6.732;2023-03-17T00:12:38;61.97;;;6.17;;
2570;SDS011;1295;51.130;6.732;2023-03-17T00:15:05;62.30;;;7.00;;
2570;SDS011;1295;51.130;6.732;2023-03-17T00:17:32;62.00;;;6.60;;
2570;SDS011;1295;51.130;6.732;2023-03-17T00:19:57;61.67;;;7.30;;
2570;SDS011;1295;51.130;6.732;2023-03-17T00:22:23;63.93;;;6.80;;
2570;SDS011;1295;51.130;6.732;2023-03-17T00:24:49;60.70;;;7.03;;
2570;SDS011;1295;51.130;6.732;2023-03-17T00:27:14;59.07;;;6.10;;
2570;SDS011;1295;51.130;6.732;2023-03-17T00:29:40;59.30;;;5.33;;
2570;SDS011;1295;51.130;6.732;2023-03-17T00:32:10;61.97;;;6.20;;
2570;SDS011;1295;51.130;6.732;2023-03-17T00:34:34;62.00;;;6.80;;
2570;SDS011;1295;51.130;6.732;2023-03-17T00:37:00;60.10;;;7.70;;
2570;SDS011;1295;51.130;6.732;2023-03-17T00:39:25;59.07;;;7.30;;
2570;SDS011;1295;51.130;6.732;2023-03-17T00:41:51;61.00;;;6.53;;
2570;SDS011;1295;51.130;6.732;2023-03-17T00:44:17;61.47;;;8.13;;
2570;SDS011;1295;51.130;6.732;2023-03-17T00:46:43;61.10;;;7.67;;
2570;SDS011;1295;51.130;6.732;2023-03-17T00:49:12;63.80;;;7.20;;
2570;SDS011;1295;51.130;6.732;2023-03-17T00:51:35;62.57;;;6.90;;
2570;SDS011;1295;51.130;6.732;2023-03-17T00:54:01;62.60;;;7.83;;
2570;SDS011;1295;51.130;6.732;2023-03-17T00:56:26;62.17;;;7.50;;
2570;SDS011;1295;51.130;6.732;2023-03-17T00:58:52;60.50;;;7.13;;
2570;SDS011;1295;51.130;6.732;2023-03-17T01:01:18;61.57;;;7.23;;
2570;SDS011;1295;51.130;6.732;2023-03-17T01:03:44;58.67;;;6.77;;
2570;SDS011;1295;51.130;6.732;2023-03-17T01:06:11;60.00;;;7.00;;
2570;SDS011;1295;51.130;6.732;2023-03-17T01:08:37;61.90;;;7.90;;
2570;SDS011;1295;51.130;6.732;2023-03-17T01:11:02;60.33;;;7.80;;
2570;SDS011;1295;51.130;6.732;2023-03-17T01:13:28;60.33;;;7.90;;
2570;SDS011;1295;51.130;6.732;2023-03-17T01:15:54;59.43;;;6.87;;
2570;SDS011;1295;51.130;6.732;2023-03-17T01:18:20;62.37;;;7.37;;
2570;SDS011;1295;51.130;6.732;2023-03-17T01:20:45;63.43;;;8.43;;
2570;SDS011;1295;51.130;6.732;2023-03-17T01:23:11;60.87;;;7.83;;
2570;SDS011;1295;51.130;6.732;2023-03-17T01:25:37;62.10;;;8.73;;
2570;SDS011;1295;51.130;6.732;2023-03-17T01:28:02;60.90;;;7.40;;
2570;SDS011;1295;51.130;6.732;2023-03-17T01:30:29;60.37;;;7.80;;
2570;SDS011;1295;51.130;6.732;2023-03-17T01:32:55;60.87;;;6.37;;
2570;SDS011;1295;51.130;6.732;2023-03-17T01:35:20;63.20;;;7.03;;
2570;SDS011;1295;51.130;6.732;2023-03-17T01:37:46;61.10;;;7.57;;
2570;SDS011;1295;51.130;6.732;2023-03-17T01:40:14;62.23;;;7.67;;
2570;SDS011;1295;51.130;6.732;2023-03-17T01:42:38;61.93;;;7.43;;
2570;SDS011;1295;51.130;6.732;2023-03-17T01:45:06;61.50;;;8.40;;
2570;SDS011;1295;51.130;6.732;2023-03-17T01:47:32;64.20;;;7.10;;
2570;SDS011;1295;51.130;6.732;2023-03-17T01:49:59;62.00;;;8.43;;
2570;SDS011;1295;51.130;6.732;2023-03-17T01:52:24;65.43;;;9.30;;
2570;SDS011;1295;51.130;6.732;2023-03-17T01:54:51;63.20;;;6.87;;
2570;SDS011;1295;51.130;6.732;2023-03-17T01:57:17;61.70;;;7.60;;
2570;SDS011;1295;51.130;6.732;2023-03-17T01:59:42;60.43;;;7.43;;
2570;SDS011;1295;51.130;6.732;2023-03-17T02:02:07;61.07;;;7.77;;
2570;SDS011;1295;51.130;6.732;2023-03-17T02:04:32;60.47;;;7.43;;
2570;SDS011;1295;51.130;6.732;2023-03-17T02:06:58;63.10;;;7.10;;
2570;SDS011;1295;51.130;6.732;2023-03-17T02:09:24;60.47;;;7.07;;
2570;SDS011;1295;51.130;6.732;2023-03-17T02:11:50;64.63;;;8.20;;
2570;SDS011;1295;51.130;6.732;2023-03-17T02:14:15;60.70;;;7.73;;
2570;SDS011;1295;51.130;6.732;2023-03-17T02:16:43;63.83;;;8.50;;
2570;SDS011;1295;51.130;6.732;2023-03-17T02:19:06;64.27;;;7.80;;
2570;SDS011;1295;51.130;6.732;2023-03-17T02:21:37;63.43;;;9.20;;
2570;SDS011;1295;51.130;6.732;2023-03-17T02:24:08;59.70;;;7.53;;
2570;SDS011;1295;51.130;6.732;2023-03-17T02:26:33;59.20;;;6.40;;
2570;SDS011;1295;51.130;6.732;2023-03-17T02:28:58;62.40;;;8.47;;
2570;SDS011;1295;51.130;6.732;2023-03-17T02:31:24;61.33;;;7.10;;
2570;SDS011;1295;51.130;6.732;2023-03-17T02:33:50;63.53;;;8.20;;
2570;SDS011;1295;51.130;6.732;2023-03-17T02:36:15;60.90;;;6.73;;
2570;SDS011;1295;51.130;6.732;2023-03-17T02:38:41;64.40;;;7.30;;
2570;SDS011;1295;51.130;6.732;2023-03-17T02:41:07;60.20;;;6.00;;
2570;SDS011;1295;51.130;6.732;2023-03-17T02:43:32;62.97;;;5.30;;
2570;SDS011;1295;51.130;6.732;2023-03-17T02:45:59;61.33;;;6.57;;
2570;SDS011;1295;51.130;6.732;2023-03-17T02:48:24;61.97;;;6.40;;
2570;SDS011;1295;51.130;6.732;2023-03-17T02:50:50;61.00;;;6.83;;
2570;SDS011;1295;51.130;6.732;2023-03-17T02:53:15;60.30;;;6.63;;
2570;SDS011;1295;51.130;6.732;2023-03-17T02:55:41;60.40;;;7.80;;
2570;SDS011;1295;51.130;6.732;2023-03-17T02:58:07;61.00;;;6.60;;
2570;SDS011;1295;51.130;6.732;2023-03-17T03:00:33;59.90;;;7.93;;
2570;SDS011;1295;51.130;6.732;2023-03-17T03:02:59;61.70;;;6.10;;
2570;SDS011;1295;51.130;6.732;2023-03-17T03:05:25;62.40;;;7.97;;
2570;SDS011;1295;51.130;6.732;2023-03-17T03:07:50;62.63;;;7.97;;
2570;SDS011;1295;51.130;6.732;2023-03-17T03:10:16;60.77;;;8.27;;
2570;SDS011;1295;51.130;6.732;2023-03-17T03:12:41;62.63;;;8.00;;
2570;SDS011;1295;51.130;6.732;2023-03-17T03:15:07;68.60;;;7.40;;
2570;SDS011;1295;51.130;6.732;2023-03-17T03:17:34;66.10;;;9.13;;
2570;SDS011;1295;51.130;6.732;2023-03-17T03:20:00;62.97;;;8.53;;
2570;SDS011;1295;51.130;6.732;2023-03-17T03:22:26;62.37;;;6.83;;
2570;SDS011;1295;51.130;6.732;2023-03-17T03:24:51;60.87;;;8.07;;
2570;SDS011;1295;51.130;6.732;2023-03-17T03:27:17;60.53;;;6.63;;
2570;SDS011;1295;51.130;6.732;2023-03-17T03:29:43;63.40;;;7.73;;
2570;SDS011;1295;51.130;6.732;2023-03-17T03:32:08;61.00;;;7.30;;
2570;SDS011;1295;51.130;6.732;2023-03-17T03:34:34;62.07;;;7.60;;
2570;SDS011;1295;51.130;6.732;2023-03-17T03:37:00;65.10;;;7.20;;
2570;SDS011;1295;51.130;6.732;2023-03-17T03:39:25;60.30;;;5.60;;
2570;SDS011;1295;51.130;6.732;2023-03-17T03:41:51;59.17;;;5.40;;
2570;SDS011;1295;51.130;6.732;2023-03-17T03:44:17;60.37;;;6.97;;
2570;SDS011;1295;51.130;6.732;2023-03-17T03:46:43;59.50;;;5.93;;
2570;SDS011;1295;51.130;6.732;2023-03-17T03:49:09;61.37;;;6.70;;
2570;SDS011;1295;51.130;6.732;2023-03-17T03:51:35;60.23;;;6.87;;
2570;SDS011;1295;51.130;6.732;2023-03-17T03:54:01;62.63;;;6.90;;
2570;SDS011;1295;51.130;6.732;2023-03-17T03:56:26;61.23;;;6.10;;
2570;SDS011;1295;51.130;6.732;2023-03-17T03:58:53;62.60;;;6.60;;
2570;SDS011;1295;51.130;6.732;2023-03-17T04:01:18;61.97;;;6.70;;
2570;SDS011;1295;51.130;6.732;2023-03-17T04:03:44;62.60;;;7.90;;
2570;SDS011;1295;51.130;6.732;2023-03-17T04:06:10;59.87;;;5.60;;
2570;SDS011;1295;51.130;6.732;2023-03-17T04:08:35;63.60;;;8.93;;
2570;SDS011;1295;51.130;6.732;2023-03-17T04:11:01;60.00;;;6.77;;
2570;SDS011;1295;51.130;6.732;2023-03-17T04:13:31;64.20;;;8.90;;
2570;SDS011;1295;51.130;6.732;2023-03-17T04:15:57;64.00;;;7.73;;
2570;SDS011;1295;51.130;6.732;2023-03-17T04:18:23;60.50;;;6.50;;
2570;SDS011;1295;51.130;6.732;2023-03-17T04:20:48;62.20;;;8.27;;
2570;SDS011;1295;51.130;6.732;2023-03-17T04:23:14;60.80;;;6.67;;
2570;SDS011;1295;51.130;6.732;2023-03-17T04:25:40;61.80;;;6.80;;
2570;SDS011;1295;51.130;6.732;2023-03-17T04:28:06;61.67;;;7.63;;
2570;SDS011;1295;51.130;6.732;2023-03-17T04:30:32;60.30;;;6.00;;
2570;SDS011;1295;51.130;6.732;2023-03-17T04:32:57;60.17;;;8.07;;
2570;SDS011;1295;51.130;6.732;2023-03-17T04:35:23;61.10;;;7.90;;
2570;SDS011;1295;51.130;6.732;2023-03-17T04:37:49;60.33;;;8.90;;
2570;SDS011;1295;51.130;6.732;2023-03-17T04:40:14;62.30;;;7.53;;
2570;SDS011;1295;51.130;6.732;2023-03-17T04:42:40;62.23;;;6.10;;
2570;SDS011;1295;51.130;6.732;2023-03-17T04:45:06;60.47;;;6.80;;
2570;SDS011;1295;51.130;6.732;2023-03-17T04:47:34;63.03;;;5.70;;
2570;SDS011;1295;51.130;6.732;2023-03-17T04:49:59;60.73;;;8.23;;
2570;SDS011;1295;51.130;6.732;2023-03-17T04:52:25;63.20;;;7.80;;
2570;SDS011;1295;51.130;6.732;2023-03-17T04:54:50;61.57;;;7.90;;
2570;SDS011;1295;51.130;6.732;2023-03-17T04:57:16;63.83;;;7.77;;
2570;SDS011;1295;51.130;6.732;2023-03-17T04:59:42;61.90;;;8.23;;
2570;SDS011;1295;51.130;6.732;2023-03-17T05:02:08;62.37;;;7.73;;
2570;SDS011;1295;51.130;6.732;2023-03-17T05:04:34;62.47;;;6.90;;
2570;SDS011;1295;51.130;6.732;2023-03-17T05:07:00;63.07;;;7.10;;
2570;SDS011;1295;51.130;6.732;2023-03-17T05:09:26;60.63;;;7.13;;
2570;SDS011;1295;51.130;6.732;2023-03-17T05:11:52;62.23;;;7.80;;
2570;SDS011;1295;51.130;6.732;2023-03-17T05:14:18;60.57;;;6.53;;
2570;SDS011;1295;51.130;6.732;2023-03-17T05:16:45;59.07;;;5.30;;
2570;SDS011;1295;51.130;6.732;2023-03-17T05:19:11;63.17;;;7.17;;
2570;SDS011;1295;51.130;6.732;2023-03-17T05:21:37;60.37;;;5.50;;
2570;SDS011;1295;51.130;6.732;2023-03-17T05:24:03;60.33;;;7.87;;
2570;SDS011;1295;51.130;6.732;2023-03-17T05:26:30;60.47;;;6.20;;
2570;SDS011;1295;51.130;6.732;2023-03-17T05:28:56;62.53;;;6.17;;
2570;SDS011;1295;51.130;6.732;2023-03-17T05:31:22;61.70;;;6.57;;
2570;SDS011;1295;51.130;6.732;2023-03-17T05:33:48;62.97;;;6.33;;
2570;SDS011;1295;51.130;6.732;2023-03-17T05:36:14;61.13;;;8.00;;
2570;SDS011;1295;51.130;6.732;2023-03-17T05:38:39;65.07;;;8.87;;
2570;SDS011;1295;51.130;6.732;2023-03-17T05:41:05;61.07;;;7.60;;
2570;SDS011;1295;51.130;6.732;2023-03-17T05:43:31;61.43;;;6.20;;
2570;SDS011;1295;51.130;6.732;2023-03-17T05:45:57;61.10;;;7.10;;
2570;SDS011;1295;51.130;6.732;2023-03-17T05:48:22;59.63;;;5.57;;
2570;SDS011;1295;51.130;6.732;2023-03-17T05:50:48;60.57;;;5.60;;
2570;SDS011;1295;51.130;6.732;2023-03-17T05:53:14;61.30;;;6.13;;
2570;SDS011;1295;51.130;6.732;2023-03-17T05:55:40;61.67;;;5.53;;
2570;SDS011;1295;51.130;6.732;2023-03-17T05:58:06;59.17;;;4.90;;
2570;SDS011;1295;51.130;6.732;2023-03-17T06:00:32;59.73;;;5.70;;
2570;SDS011;1295;51.130;6.732;2023-03-17T06:02:58;63.77;;;6.57;;
2570;SDS011;1295;51.130;6.732;2023-03-17T06:05:23;66.90;;;6.53;;
2570;SDS011;1295;51.130;6.732;2023-03-17T06:07:50;58.47;;;3.90;;
2570;SDS011;1295;51.130;6.732;2023-03-17T06:10:16;62.63;;;5.13;;
2570;SDS011;1295;51.130;6.732;2023-03-17T06:12:41;62.27;;;5.40;;
2570;SDS011;1295;51.130;6.732;2023-03-17T06:15:07;61.50;;;5.13;;
2570;SDS011;1295;51.130;6.732;2023-03-17T06:17:33;59.13;;;4.77;;
2570;SDS011;1295;51.130;6.732;2023-03-17T06:19:59;61.70;;;5.87;;
2570;SDS011;1295;51.130;6.732;2023-03-17T06:22:24;61.03;;;4.60;;
2570;SDS011;1295;51.130;6.732;2023-03-17T06:24:51;62.47;;;5.80;;
2570;SDS011;1295;51.130;6.732;2023-03-17T06:27:16;59.80;;;5.00;;
2570;SDS011;1295;51.130;6.732;2023-03-17T06:29:42;61.40;;;6.83;;
2570;SDS011;1295;51.130;6.732;2023-03-17T06:32:08;60.87;;;5.90;;
2570;SDS011;1295;51.130;6.732;2023-03-17T06:34:33;60.57;;;5.90;;
2570;SDS011;1295;51.130;6.732;2023-03-17T06:36:59;61.07;;;6.07;;
2570;SDS011;1295;51.130;6.732;2023-03-17T06:39:25;62.77;;;6.80;;
2570;SDS011;1295;51.130;6.732;2023-03-17T06:41:50;60.73;;;5.27;;
2570;SDS011;1295;51.130;6.732;2023-03-17T06:44:16;60.90;;;5.70;;
2570;SDS011;1295;51.130;6.732;2023-03-17T06:46:42;62.20;;;7.60;;
2570;SDS011;1295;51.130;6.732;2023-03-17T06:49:07;62.43;;;5.60;;
2570;SDS011;1295;51.130;6.732;2023-03-17T06:51:33;61.20;;;5.70;;
2570;SDS011;1295;51.130;6.732;2023-03-17T06:53:59;60.70;;;6.30;;
2570;SDS011;1295;51.130;6.732;2023-03-17T06:56:24;63.40;;;5.60;;
2570;SDS011;1295;51.130;6.732;2023-03-17T06:58:50;62.77;;;6.43;;
2570;SDS011;1295;51.130;6.732;2023-03-17T07:01:15;61.47;;;5.53;;
2570;SDS011;1295;51.130;6.732;2023-03-17T07:03:41;63.53;;;6.30;;
2570;SDS011;1295;51.130;6.732;2023-03-17T07:06:07;62.13;;;5.70;;
2570;SDS011;1295;51.130;6.732;2023-03-17T07:08:32;60.93;;;5.20;;
2570;SDS011;1295;51.130;6.732;2023-03-17T07:10:58;61.80;;;4.60;;
2570;SDS011;1295;51.130;6.732;2023-03-17T07:13:24;63.70;;;5.60;;
2570;SDS011;1295;51.130;6.732;2023-03-17T07:15:49;59.50;;;4.70;;
2570;SDS011;1295;51.130;6.732;2023-03-17T07:18:15;62.07;;;6.60;;
2570;SDS011;1295;51.130;6.732;2023-03-17T07:20:42;64.10;;;5.17;;
2570;SDS011;1295;51.130;6.732;2023-03-17T07:23:10;60.67;;;5.43;;
2570;SDS011;1295;51.130;6.732;2023-03-17T07:25:44;60.13;;;5.80;;
2570;SDS011;1295;51.130;6.732;2023-03-17T07:28:10;59.20;;;5.20;;
2570;SDS011;1295;51.130;6.732;2023-03-17T07:30:36;60.97;;;5.17;;
2570;SDS011;1295;51.130;6.732;2023-03-17T07:33:01;62.33;;;7.50;;
2570;SDS011;1295;51.130;6.732;2023-03-17T07:35:27;62.60;;;5.40;;
2570;SDS011;1295;51.130;6.732;2023-03-17T07:37:53;60.97;;;6.47;;
2570;SDS011;1295;51.130;6.732;2023-03-17T07:40:18;59.10;;;5.57;;
2570;SDS011;1295;51.130;6.732;2023-03-17T07:42:44;61.73;;;5.37;;
2570;SDS011;1295;51.130;6.732;2023-03-17T07:45:10;60.10;;;5.27;;
2570;SDS011;1295;51.130;6.732;2023-03-17T07:47:36;66.00;;;5.37;;
2570;SDS011;1295;51.130;6.732;2023-03-17T07:50:01;60.57;;;5.40;;
2570;SDS011;1295;51.130;6.732;2023-03-17T07:52:27;61.30;;;6.20;;
2570;SDS011;1295;51.130;6.732;2023-03-17T07:54:53;62.67;;;6.10;;
2570;SDS011;1295;51.130;6.732;2023-03-17T07:57:26;61.30;;;5.97;;
2570;SDS011;1295;51.130;6.732;2023-03-17T07:59:52;60.60;;;5.43;;
2570;SDS011;1295;51.130;6.732;2023-03-17T08:02:18;60.27;;;5.20;;
2570;SDS011;1295;51.130;6.732;2023-03-17T08:04:43;96.17;;;8.40;;
2570;SDS011;1295;51.130;6.732;2023-03-17T08:07:09;61.50;;;6.20;;
2570;SDS011;1295;51.130;6.732;2023-03-17T08:09:36;65.63;;;6.23;;
2570;SDS011;1295;51.130;6.732;2023-03-17T08:12:02;64.80;;;6.73;;
2570;SDS011;1295;51.130;6.732;2023-03-17T08:14:27;62.10;;;5.70;;
2570;SDS011;1295;51.130;6.732;2023-03-17T08:16:52;61.97;;;6.63;;
2570;SDS011;1295;51.130;6.732;2023-03-17T08:19:19;62.60;;;6.43;;
2570;SDS011;1295;51.130;6.732;2023-03-17T08:21:44;68.10;;;5.73;;
2570;SDS011;1295;51.130;6.732;2023-03-17T08:24:10;63.20;;;6.20;;
2570;SDS011;1295;51.130;6.732;2023-03-17T08:26:36;61.70;;;5.50;;
2570;SDS011;1295;51.130;6.732;2023-03-17T08:29:01;67.23;;;6.90;;
2570;SDS011;1295;51.130;6.732;2023-03-17T08:31:27;80.23;;;10.23;;
2570;SDS011;1295;51.130;6.732;2023-03-17T08:33:53;66.80;;;6.40;;
2570;SDS011;1295;51.130;6.732;2023-03-17T08:36:19;68.93;;;7.30;;
2570;SDS011;1295;51.130;6.732;2023-03-17T08:38:46;63.47;;;4.97;;
2570;SDS011;1295;51.130;6.732;2023-03-17T08:41:13;65.07;;;6.37;;
2570;SDS011;1295;51.130;6.732;2023-03-17T08:43:37;61.17;;;6.20;;
2570;SDS011;1295;51.130;6.732;2023-03-17T08:46:05;62.20;;;6.23;;
2570;SDS011;1295;51.130;6.732;2023-03-17T08:48:33;61.03;;;5.30;;
2570;SDS011;1295;51.130;6.732;2023-03-17T08:51:03;62.67;;;6.33;;
2570;SDS011;1295;51.130;6.732;2023-03-17T08:53:28;62.07;;;5.70;;
2570;SDS011;1295;51.130;6.732;2023-03-17T08:55:54;60.23;;;5.47;;
2570;SDS011;1295;51.130;6.732;2023-03-17T08:58:20;59.90;;;6.50;;
2570;SDS011;1295;51.130;6.732;2023-03-17T09:00:46;61.93;;;5.13;;
2570;SDS011;1295;51.130;6.732;2023-03-17T09:03:11;62.90;;;6.07;;
2570;SDS011;1295;51.130;6.732;2023-03-17T09:05:38;65.47;;;6.50;;
2570;SDS011;1295;51.130;6.732;2023-03-17T09:08:03;74.53;;;6.63;;
2570;SDS011;1295;51.130;6.732;2023-03-17T09:10:29;63.00;;;6.90;;
2570;SDS011;1295;51.130;6.732;2023-03-17T09:12:55;61.33;;;5.40;;
2570;SDS011;1295;51.130;6.732;2023-03-17T09:15:21;60.50;;;6.40;;
2570;SDS011;1295;51.130;6.732;2023-03-17T09:17:47;63.50;;;7.07;;
2570;SDS011;1295;51.130;6.732;2023-03-17T09:20:13;60.70;;;6.17;;
2570;SDS011;1295;51.130;6.732;2023-03-17T09:22:39;63.23;;;5.93;;
2570;SDS011;1295;51.130;6.732;2023-03-17T09:25:04;62.80;;;6.30;;
2570;SDS011;1295;51.130;6.732;2023-03-17T09:27:30;61.67;;;6.30;;
2570;SDS011;1295;51.130;6.732;2023-03-17T09:29:57;63.17;;;4.93;;
2570;SDS011;1295;51.130;6.732;2023-03-17T09:32:22;62.03;;;9.30;;
2570;SDS011;1295;51.130;6.732;2023-03-17T09:34:48;67.57;;;16.37;;
2570;SDS011;1295;51.130;6.732;2023-03-17T09:37:14;69.67;;;15.57;;
2570;SDS011;1295;51.130;6.732;2023-03-17T09:39:39;63.93;;;6.67;;
2570;SDS011;1295;51.130;6.732;2023-03-17T09:42:11;70.27;;;9.13;;
2570;SDS011;1295;51.130;6.732;2023-03-17T09:44:44;61.80;;;11.60;;
2570;SDS011;1295;51.130;6.732;2023-03-17T09:47:15;64.40;;;8.60;;
2570;SDS011;1295;51.130;6.732;2023-03-17T09:49:39;63.97;;;9.30;;
2570;SDS011;1295;51.130;6.732;2023-03-17T09:52:20;61.27;;;6.97;;
2570;SDS011;1295;51.130;6.732;2023-03-17T09:54:44;64.47;;;7.37;;
2570;SDS011;1295;51.130;6.732;2023-03-17T09:57:11;82.43;;;24.20;;
2570;SDS011;1295;51.130;6.732;2023-03-17T09:59:40;66.57;;;11.27;;
2570;SDS011;1295;51.130;6.732;2023-03-17T10:02:21;61.30;;;7.43;;
2570;SDS011;1295;51.130;6.732;2023-03-17T10:04:39;66.00;;;13.67;;
2570;SDS011;1295;51.130;6.732;2023-03-17T10:07:05;68.03;;;9.37;;
2570;SDS011;1295;51.130;6.732;2023-03-17T10:09:33;76.30;;;36.90;;
2570;SDS011;1295;51.130;6.732;2023-03-17T10:12:03;72.57;;;31.50;;
2570;SDS011;1295;51.130;6.732;2023-03-17T10:14:45;67.67;;;25.17;;
2570;SDS011;1295;51.130;6.732;2023-03-17T10:17:12;80.87;;;26.83;;
2570;SDS011;1295;51.130;6.732;2023-03-17T10:19:39;69.60;;;15.27;;
2570;SDS011;1295;51.130;6.732;2023-03-17T10:22:07;74.17;;;18.63;;
2570;SDS011;1295;51.130;6.732;2023-03-17T10:24:31;76.90;;;26.53;;
2570;SDS011;1295;51.130;6.732;2023-03-17T10:26:56;70.73;;;19.27;;
2570;SDS011;1295;51.130;6.732;2023-03-17T10:29:21;64.07;;;15.63;;
2570;SDS011;1295;51.130;6.732;2023-03-17T10:31:47;73.00;;;29.60;;
2570;SDS011;1295;51.130;6.732;2023-03-17T10:34:17;70.13;;;27.07;;
2570;SDS011;1295;51.130;6.732;2023-03-17T10:36:44;72.47;;;36.47;;
2570;SDS011;1295;51.130;6.732;2023-03-17T10:39:09;67.17;;;22.13;;
2570;SDS011;1295;51.130;6.732;2023-03-17T10:41:35;73.40;;;22.00;;
2570;SDS011;1295;51.130;6.732;2023-03-17T10:44:00;68.67;;;23.67;;
2570;SDS011;1295;51.130;6.732;2023-03-17T10:46:25;73.37;;;21.93;;
2570;SDS011;1295;51.130;6.732;2023-03-17T10:48:53;73.50;;;29.60;;
2570;SDS011;1295;51.130;6.732;2023-03-17T10:51:20;68.77;;;15.23;;
2570;SDS011;1295;51.130;6.732;2023-03-17T10:53:44;66.63;;;13.83;;
2570;SDS011;1295;51.130;6.732;2023-03-17T10:56:17;63.87;;;6.80;;
2570;SDS011;1295;51.130;6.732;2023-03-17T10:58:37;72.30;;;15.70;;
2570;SDS011;1295;51.130;6.732;2023-03-17T11:01:06;80.23;;;13.00;;
2570;SDS011;1295;51.130;6.732;2023-03-17T11:03:46;77.07;;;8.70;;
2570;SDS011;1295;51.130;6.732;2023-03-17T11:06:13;68.63;;;7.60;;
2570;SDS011;1295;51.130;6.732;2023-03-17T11:08:39;62.30;;;6.40;;
2570;SDS011;1295;51.130;6.732;2023-03-17T11:11:05;63.90;;;5.70;;
2570;SDS011;1295;51.130;6.732;2023-03-17T11:13:30;64.93;;;6.30;;
2570;SDS011;1295;51.130;6.732;2023-03-17T11:16:08;63.87;;;9.63;;
2570;SDS011;1295;51.130;6.732;2023-03-17T11:18:36;67.63;;;7.30;;
2570;SDS011;1295;51.130;6.732;2023-03-17T11:21:01;63.80;;;6.70;;
2570;SDS011;1295;51.130;6.732;2023-03-17T11:23:36;63.10;;;7.70;;
2570;SDS011;1295;51.130;6.732;2023-03-17T11:26:04;72.37;;;9.83;;
2570;SDS011;1295;51.130;6.732;2023-03-17T11:28:27;60.50;;;5.70;;
2570;SDS011;1295;51.130;6.732;2023-03-17T11:31:09;75.63;;;11.60;;
2570;SDS011;1295;51.130;6.732;2023-03-17T11:33:41;62.67;;;7.10;;
2570;SDS011;1295;51.130;6.732;2023-03-17T11:39:24;70.83;;;16.73;;
2570;SDS011;1295;51.130;6.732;2023-03-17T11:42:20;79.33;;;15.57;;
2570;SDS011;1295;51.130;6.732;2023-03-17T11:47:18;75.63;;;19.83;;
2570;SDS011;1295;51.130;6.732;2023-03-17T11:49:49;108.57;;;19.60;;
2570;SDS011;1295;51.130;6.732;2023-03-17T11:54:53;85.27;;;15.93;;
2570;SDS011;1295;51.130;6.732;2023-03-17T11:57:25;67.73;;;16.50;;
2570;SDS011;1295;51.130;6.732;2023-03-17T11:59:59;66.50;;;12.73;;
2570;SDS011;1295;51.130;6.732;2023-03-17T12:02:27;68.73;;;14.73;;
2570;SDS011;1295;51.130;6.732;2023-03-17T12:05:07;64.37;;;13.40;;
2570;SDS011;1295;51.130;6.732;2023-03-17T12:07:34;68.17;;;13.80;;
2570;SDS011;1295;51.130;6.732;2023-03-17T12:10:05;63.87;;;19.00;;
2570;SDS011;1295;51.130;6.732;2023-03-17T12:12:30;66.90;;;17.50;;
2570;SDS011;1295;51.130;6.732;2023-03-17T12:14:56;64.00;;;15.30;;
2570;SDS011;1295;51.130;6.732;2023-03-17T12:17:22;63.60;;;12.23;;
2570;SDS011;1295;51.130;6.732;2023-03-17T12:19:56;65.53;;;14.00;;
2570;SDS011;1295;51.130;6.732;2023-03-17T12:22:23;74.10;;;30.00;;
2570;SDS011;1295;51.130;6.732;2023-03-17T12:24:52;66.63;;;15.27;;
2570;SDS011;1295;51.130;6.732;2023-03-17T12:27:23;67.10;;;21.20;;
2570;SDS011;1295;51.130;6.732;2023-03-17T12:29:53;71.73;;;10.80;;
2570;SDS011;1295;51.130;6.732;2023-03-17T12:32:25;68.77;;;9.00;;
2570;SDS011;1295;51.130;6.732;2023-03-17T12:35:00;66.13;;;8.20;;
2570;SDS011;1295;51.130;6.732;2023-03-17T12:37:25;64.00;;;10.80;;
2570;SDS011;1295;51.130;6.732;2023-03-17T12:39:53;64.50;;;13.00;;
2570;SDS011;1295;51.130;6.732;2023-03-17T12:42:21;66.10;;;5.20;;
2570;SDS011;1295;51.130;6.732;2023-03-17T12:47:43;61.40;;;6.40;;
2570;SDS011;1295;51.130;6.732;2023-03-17T12:50:20;68.63;;;6.30;;
2570;SDS011;1295;51.130;6.732;2023-03-17T12:55:43;69.70;;;6.30;;
2570;SDS011;1295;51.130;6.732;2023-03-17T13:00:47;69.00;;;9.77;;
2570;SDS011;1295;51.130;6.732;2023-03-17T13:03:18;67.30;;;7.93;;
2570;SDS011;1295;51.130;6.732;2023-03-17T13:05:45;71.03;;;12.13;;
2570;SDS011;1295;51.130;6.732;2023-03-17T13:08:10;88.83;;;56.03;;
2570;SDS011;1295;51.130;6.732;2023-03-17T13:10:38;59.90;;;7.23;;
2570;SDS011;1295;51.130;6.732;2023-03-17T13:13:06;78.73;;;46.37;;
2570;SDS011;1295;51.130;6.732;2023-03-17T13:15:48;84.20;;;68.47;;
2570;SDS011;1295;51.130;6.732;2023-03-17T13:21:12;68.40;;;14.63;;
2570;SDS011;1295;51.130;6.732;2023-03-17T13:23:39;71.87;;;37.03;;
2570;SDS011;1295;51.130;6.732;2023-03-17T13:26:05;74.83;;;25.57;;
2570;SDS011;1295;51.130;6.732;2023-03-17T13:28:41;61.90;;;5.30;;
2570;SDS011;1295;51.130;6.732;2023-03-17T13:31:15;60.47;;;3.47;;
2570;SDS011;1295;51.130;6.732;2023-03-17T13:33:55;73.93;;;20.60;;
2570;SDS011;1295;51.130;6.732;2023-03-17T13:36:25;69.13;;;16.33;;
2570;SDS011;1295;51.130;6.732;2023-03-17T13:38:58;89.20;;;79.23;;
2570;SDS011;1295;51.130;6.732;2023-03-17T13:44:11;77.33;;;59.67;;
2570;SDS011;1295;51.130;6.732;2023-03-17T13:46:40;80.10;;;48.57;;
2570;SDS011;1295;51.130;6.732;2023-03-17T13:49:13;66.73;;;11.43;;
2570;SDS011;1295;51.130;6.732;2023-03-17T13:51:36;70.03;;;30.93;;
2570;SDS011;1295;51.130;6.732;2023-03-17T13:54:07;68.37;;;27.27;;
2570;SDS011;1295;51.130;6.732;2023-03-17T13:56:49;67.17;;;16.53;;
2570;SDS011;1295;51.130;6.732;2023-03-17T13:59:16;82.53;;;57.87;;
2570;SDS011;1295;51.130;6.732;2023-03-17T14:01:51;64.10;;;10.77;;
2570;SDS011;1295;51.130;6.732;2023-03-17T14:04:20;77.97;;;34.97;;
2570;SDS011;1295;51.130;6.732;2023-03-17T14:06:45;71.63;;;26.10;;
2570;SDS011;1295;51.130;6.732;2023-03-17T14:09:17;77.70;;;58.40;;
2570;SDS011;1295;51.130;6.732;2023-03-17T14:11:43;65.67;;;22.70;;
2570;SDS011;1295;51.130;6.732;2023-03-17T14:14:13;79.53;;;70.27;;
2570;SDS011;1295;51.130;6.732;2023-03-17T14:16:44;70.40;;;42.60;;
2570;SDS011;1295;51.130;6.732;2023-03-17T14:19:11;80.33;;;63.43;;
2570;SDS011;1295;51.130;6.732;2023-03-17T14:21:35;79.47;;;46.43;;
2570;SDS011;1295;51.130;6.732;2023-03-17T14:24:02;94.90;;;71.57;;
2570;SDS011;1295;51.130;6.732;2023-03-17T14:26:29;80.93;;;54.20;;
2570;SDS011;1295;51.130;6.732;2023-03-17T14:28:54;87.60;;;37.67;;
2570;SDS011;1295;51.130;6.732;2023-03-17T14:31:21;73.97;;;27.23;;
2570;SDS011;1295;51.130;6.732;2023-03-17T14:33:46;99.30;;;39.70;;
2570;SDS011;1295;51.130;6.732;2023-03-17T14:36:12;74.10;;;34.80;;
2570;SDS011;1295;51.130;6.732;2023-03-17T14:38:44;84.17;;;63.03;;
2570;SDS011;1295;51.130;6.732;2023-03-17T14:43:41;71.37;;;32.90;;
2570;SDS011;1295;51.130;6.732;2023-03-17T14:46:11;78.10;;;54.40;;
2570;SDS011;1295;51.130;6.732;2023-03-17T14:48:34;90.20;;;46.37;;
2570;SDS011;1295;51.130;6.732;2023-03-17T14:51:03;69.03;;;39.23;;
2570;SDS011;1295;51.130;6.732;2023-03-17T14:53:30;83.33;;;73.37;;
2570;SDS011;1295;51.130;6.732;2023-03-17T14:55:55;75.57;;;34.80;;
2570;SDS011;1295;51.130;6.732;2023-03-17T14:58:24;69.37;;;20.63;;
2570;SDS011;1295;51.130;6.732;2023-03-17T15:00:55;79.13;;;43.63;;
2570;SDS011;1295;51.130;6.732;2023-03-17T15:03:20;73.67;;;28.73;;
2570;SDS011;1295;51.130;6.732;2023-03-17T15:05:45;68.53;;;29.77;;
2570;SDS011;1295;51.130;6.732;2023-03-17T15:10:49;73.47;;;38.87;;
2570;SDS011;1295;51.130;6.732;2023-03-17T15:13:15;87.63;;;56.03;;
2570;SDS011;1295;51.130;6.732;2023-03-17T15:15:40;80.37;;;57.60;;
2570;SDS011;1295;51.130;6.732;2023-03-17T15:18:10;66.57;;;20.27;;
2570;SDS011;1295;51.130;6.732;2023-03-17T15:20:32;66.50;;;19.30;;
2570;SDS011;1295;51.130;6.732;2023-03-17T15:22:59;62.27;;;7.10;;